Time;durP1;ratioP1;P1;durP2;ratioP2;P2;SDS_P1;SDS_P2;PMS_P1;PMS_P2;Temp;Humidity;BMP_temperature;BMP_pressure;BME280_temperature;BME280_humidity;BME280_pressure;Samples;Min_cycle;Max_cycle;Signal;HPM_P1;HPM_P2
2022/05/16 00:01:12;;;;;;;4.05;2.10;;;;;;;12.90;52.20;101426.94;7396681;19;20018;-67
2022/05/16 00:03:43;;;;;;;4.75;1.95;;;;;;;12.81;52.44;101430.63;7396559;19;20470;-67
2022/05/16 00:06:11;;;;;;;5.85;2.42;;;;;;;12.75;52.70;101426.38;7395317;19;20428;-67
2022/05/16 00:08:39;;;;;;;2.75;1.80;;;;;;;12.71;52.79;101422.03;7396599;19;20481;-66
2022/05/16 00:11:07;;;;;;;2.47;1.88;;;;;;;12.67;52.92;101426.50;7394958;19;20078;-67
2022/05/16 00:13:36;;;;;;;7.13;2.00;;;;;;;12.64;53.15;101425.72;7396757;19;20026;-67
2022/05/16 00:16:04;;;;;;;3.10;2.00;;;;;;;12.60;53.42;101429.28;7394638;19;20422;-67
2022/05/16 00:18:33;;;;;;;2.63;2.00;;;;;;;12.58;53.35;101426.69;7396606;19;20018;-67
2022/05/16 00:21:03;;;;;;;5.72;2.10;;;;;;;12.57;53.49;101424.94;7394892;19;20018;-67
2022/05/16 00:23:32;;;;;;;3.83;1.67;;;;;;;12.54;53.69;101415.34;7394448;19;20485;-67
2022/05/16 00:26:00;;;;;;;3.58;2.28;;;;;;;12.53;53.87;101420.63;7396365;19;20035;-67
2022/05/16 00:28:28;;;;;;;3.17;1.90;;;;;;;12.51;53.98;101427.69;7394516;19;20078;-66
2022/05/16 00:30:56;;;;;;;2.28;1.58;;;;;;;12.48;54.08;101428.63;7394574;19;20018;-67
2022/05/16 00:33:24;;;;;;;3.70;2.08;;;;;;;12.44;54.24;101424.31;7394530;19;20538;-67
2022/05/16 00:35:52;;;;;;;3.05;1.77;;;;;;;12.40;54.42;101422.63;7394393;19;20022;-67
2022/05/16 00:38:23;;;;;;;2.90;1.80;;;;;;;12.33;54.63;101421.00;7395591;19;20469;-68
2022/05/16 00:40:51;;;;;;;4.35;1.90;;;;;;;12.28;54.60;101428.13;7394087;19;20517;-67
2022/05/16 00:43:42;;;;;;;2.45;2.13;;;;;;;12.25;55.61;101428.19;7394169;19;20031;-67
2022/05/16 00:46:11;;;;;;;3.00;2.00;;;;;;;12.21;55.05;101417.69;7395757;19;20045;-67
2022/05/16 00:48:39;;;;;;;3.47;1.80;;;;;;;12.17;55.26;101423.91;7394065;19;20014;-67
2022/05/16 00:51:11;;;;;;;4.22;2.25;;;;;;;12.15;55.54;101430.09;7393699;19;20078;-67
2022/05/16 00:53:44;;;;;;;4.38;2.35;;;;;;;12.12;55.59;101431.03;7395779;19;20086;-67
2022/05/16 00:56:13;;;;;;;3.67;2.10;;;;;;;12.10;55.73;101427.53;7394318;19;20026;-67
2022/05/16 00:58:43;;;;;;;2.10;1.90;;;;;;;12.09;55.96;101438.94;7395360;19;20074;-67
2022/05/16 01:06:34;;;;;;;4.85;2.22;;;;;;;11.98;56.35;101431.25;7395073;19;20027;-67
2022/05/16 01:09:05;;;;;;;3.67;2.35;;;;;;;11.97;56.49;101426.03;7393368;19;20094;-67
2022/05/16 01:11:33;;;;;;;2.55;2.00;;;;;;;11.93;56.63;101430.44;7397587;19;20031;-67
2022/05/16 01:14:01;;;;;;;6.30;2.30;;;;;;;11.87;56.97;101428.75;7409974;19;20014;-67
2022/05/16 01:16:37;;;;;;;4.97;2.65;;;;;;;11.84;57.11;101426.19;7407427;19;20035;-67
2022/05/16 01:19:05;;;;;;;5.25;2.35;;;;;;;11.81;57.11;101425.38;7410991;19;20043;-67
2022/05/16 01:21:38;;;;;;;4.28;2.33;;;;;;;11.77;57.54;101426.31;7409709;19;20011;-67
2022/05/16 01:24:13;;;;;;;3.83;2.30;;;;;;;11.69;57.60;101427.31;7409469;19;20067;-67
2022/05/16 01:26:42;;;;;;;3.30;1.65;;;;;;;11.64;57.73;101426.50;7407123;19;20018;-67
2022/05/16 01:29:11;;;;;;;4.63;2.42;;;;;;;11.58;57.70;101422.19;7408366;19;20036;-67
2022/05/16 01:31:40;;;;;;;2.45;2.00;;;;;;;11.54;57.97;101423.13;7406785;19;20014;-67
2022/05/16 01:34:08;;;;;;;4.97;2.58;;;;;;;11.50;58.08;101413.56;7406608;19;20501;-67
2022/05/16 01:36:36;;;;;;;4.18;2.30;;;;;;;11.46;58.06;101416.25;7408761;19;20043;-67
2022/05/16 01:39:04;;;;;;;4.20;2.33;;;;;;;11.40;58.35;101402.31;7408123;19;20077;-67
2022/05/16 01:41:35;;;;;;;4.63;2.25;;;;;;;11.37;58.56;101412.00;7408504;19;20015;-67
2022/05/16 01:44:03;;;;;;;3.00;2.20;;;;;;;11.32;58.64;101406.84;7408513;19;20027;-67
2022/05/16 01:46:35;;;;;;;5.57;2.03;;;;;;;11.29;58.87;101406.00;7408481;19;20077;-67
2022/05/16 01:49:03;;;;;;;4.00;2.10;;;;;;;11.25;59.10;101413.06;7408367;19;20018;-67
2022/05/16 01:51:31;;;;;;;5.65;3.10;;;;;;;11.21;59.12;101412.22;7407885;19;20086;-67
2022/05/16 01:54:01;;;;;;;3.67;2.08;;;;;;;11.18;59.25;101409.63;7406047;19;20074;-67
2022/05/16 01:56:29;;;;;;;5.93;2.47;;;;;;;11.13;59.45;101403.56;7408284;19;20014;-67
2022/05/16 01:59:01;;;;;;;3.20;2.20;;;;;;;11.08;59.74;101414.16;7408413;19;20030;-67
2022/05/16 02:01:30;;;;;;;4.88;2.45;;;;;;;11.05;59.95;101405.44;7406351;19;20026;-67
2022/05/16 02:03:58;;;;;;;4.72;2.50;;;;;;;11.02;59.88;101406.34;7407891;19;20074;-67
2022/05/16 02:06:26;;;;;;;3.80;2.75;;;;;;;10.99;60.28;101403.75;7407871;19;20074;-67
2022/05/16 02:08:54;;;;;;;4.00;2.45;;;;;;;10.97;60.25;101396.78;7407470;19;20018;-67
2022/05/16 02:11:23;;;;;;;9.43;2.92;;;;;;;10.91;60.53;101397.75;7407502;19;20070;-66
2022/05/16 02:13:51;;;;;;;6.07;2.80;;;;;;;10.88;60.76;101397.75;7405520;19;20026;-67
2022/05/16 02:16:22;;;;;;;4.70;2.33;;;;;;;10.83;61.08;101386.47;7406808;19;20093;-68
2022/05/16 02:18:50;;;;;;;4.20;2.60;;;;;;;10.80;61.00;101389.13;7409007;19;20011;-67
2022/05/16 02:26:46;;;;;;;5.50;2.83;;;;;;;10.69;61.55;101384.88;7400439;19;20516;-67
2022/05/16 02:29:14;;;;;;;3.95;2.83;;;;;;;10.66;61.64;101382.28;7399938;19;20077;-66
2022/05/16 02:31:45;;;;;;;4.68;2.83;;;;;;;10.63;62.05;101384.97;7397319;19;20079;-67
2022/05/16 02:34:14;;;;;;;4.47;2.60;;;;;;;10.58;62.10;101387.63;7397329;19;20014;-66
2022/05/16 02:36:42;;;;;;;7.25;3.08;;;;;;;10.55;62.29;101390.31;7397251;19;20020;-66
2022/05/16 02:39:11;;;;;;;5.35;3.42;;;;;;;10.52;62.58;101387.69;7399225;19;20022;-67
2022/05/16 02:41:39;;;;;;;7.10;2.95;;;;;;;10.50;62.74;101384.25;7399806;19;20070;-66
2022/05/16 02:44:08;;;;;;;4.65;2.85;;;;;;;10.47;62.95;101379.00;7399613;19;20036;-66
2022/05/16 02:46:37;;;;;;;4.80;2.90;;;;;;;10.44;62.92;101368.56;7399935;19;20509;-66
2022/05/16 02:49:08;;;;;;;4.63;3.25;;;;;;;10.41;63.28;101377.34;7398627;19;20031;-67
2022/05/16 02:51:36;;;;;;;5.13;3.15;;;;;;;10.37;63.46;101372.13;7397020;19;20078;-67
2022/05/16 02:54:05;;;;;;;5.28;2.85;;;;;;;10.34;63.70;101369.53;7399546;19;20031;-66
2022/05/16 02:56:33;;;;;;;6.22;3.10;;;;;;;10.28;63.91;101371.28;7399009;19;20035;-67
2022/05/16 02:59:01;;;;;;;5.93;3.40;;;;;;;10.24;64.02;101366.13;7396477;19;20469;-67
2022/05/16 03:01:33;;;;;;;5.28;3.10;;;;;;;10.18;64.25;101363.56;7396905;19;20019;-67
2022/05/16 03:04:02;;;;;;;6.97;3.08;;;;;;;10.15;64.64;101360.94;7399551;19;20026;-67
2022/05/16 03:06:32;;;;;;;5.32;3.63;;;;;;;10.11;64.82;101362.75;7396846;19;20014;-67
2022/05/16 03:09:01;;;;;;;4.38;2.90;;;;;;;10.07;64.91;101359.28;7398140;19;20510;-67
2022/05/16 03:11:29;;;;;;;4.47;3.10;;;;;;;10.04;64.99;101358.44;7398731;19;20087;-67
2022/05/16 03:13:58;;;;;;;7.03;3.08;;;;;;;10.03;65.15;101356.72;7398362;19;20525;-67
2022/05/16 03:16:26;;;;;;;6.03;3.42;;;;;;;10.02;65.33;101368.06;7396376;19;20074;-66
2022/05/16 03:18:54;;;;;;;5.43;3.72;;;;;;;10.01;65.30;101368.94;7398152;19;20018;-67
2022/05/16 03:21:23;;;;;;;5.78;3.40;;;;;;;9.98;65.59;101367.22;7398186;19;20513;-67
2022/05/16 03:23:53;;;;;;;7.57;3.97;;;;;;;9.98;65.62;101377.72;7396310;19;20039;-67
2022/05/16 03:26:21;;;;;;;7.18;3.72;;;;;;;9.94;65.84;101365.53;7396295;19;20027;-67
2022/05/16 03:28:50;;;;;;;5.13;3.15;;;;;;;9.92;66.01;101364.66;7397959;19;20018;-67
2022/05/16 03:31:18;;;;;;;7.32;3.55;;;;;;;9.89;65.92;101364.69;7395740;19;20438;-67
2022/05/16 03:33:46;;;;;;;6.82;3.53;;;;;;;9.86;66.08;101355.13;7394853;19;20078;-66
2022/05/16 03:36:20;;;;;;;6.32;3.78;;;;;;;9.85;66.57;101360.38;7396257;19;20022;-67
2022/05/16 03:41:31;;;;;;;6.85;3.60;;;;;;;9.77;66.70;101349.97;7397888;19;20042;-67
2022/05/16 03:43:59;;;;;;;5.75;3.75;;;;;;;9.77;66.57;101353.44;7397809;19;20010;-69
2022/05/16 03:46:27;;;;;;;5.43;3.35;;;;;;;9.74;66.66;101348.25;7397332;19;20225;-67
2022/05/16 03:48:56;;;;;;;5.15;3.25;;;;;;;9.73;66.85;101345.59;7395019;19;20026;-66
2022/05/16 03:51:24;;;;;;;5.55;3.25;;;;;;;9.72;67.07;101336.88;7396353;19;20453;-71
2022/05/16 03:53:52;;;;;;;5.68;3.92;;;;;;;9.70;67.26;101341.25;7395763;19;20019;-70
2022/05/16 03:56:22;;;;;;;7.78;4.07;;;;;;;9.67;67.25;101332.56;7394657;19;20485;-68
2022/05/16 03:58:54;;;;;;;6.07;3.22;;;;;;;9.68;67.51;101340.44;7395351;19;20139;-67
2022/05/16 04:01:23;;;;;;;6.90;3.78;;;;;;;9.67;67.59;101340.41;7397577;19;20035;-67
2022/05/16 04:03:51;;;;;;;7.15;4.18;;;;;;;9.65;67.58;101343.06;7394678;19;20019;-67
2022/05/16 04:06:20;;;;;;;8.13;4.05;;;;;;;9.64;67.80;101343.06;7395989;19;20022;-66
2022/05/16 04:08:48;;;;;;;5.80;3.70;;;;;;;9.64;67.81;101343.06;7396079;19;20025;-68
2022/05/16 04:11:19;;;;;;;8.50;3.80;;;;;;;9.64;68.01;101340.47;7394247;19;20035;-68
2022/05/16 04:13:49;;;;;;;5.55;3.50;;;;;;;9.62;67.82;101338.72;7395352;19;20018;-68
2022/05/16 04:16:19;;;;;;;5.97;4.30;;;;;;;9.64;68.28;101337.84;7396571;19;20018;-68
2022/05/16 04:18:48;;;;;;;8.25;3.53;;;;;;;9.62;68.38;101341.34;7396230;19;20022;-67
2022/05/16 04:21:16;;;;;;;7.88;4.47;;;;;;;9.62;68.47;101336.09;7393373;19;20041;-67
2022/05/16 04:23:45;;;;;;;8.18;4.38;;;;;;;9.64;68.43;101336.06;7394413;19;20024;-67
2022/05/16 04:26:13;;;;;;;5.70;3.58;;;;;;;9.65;68.50;101336.97;7393808;19;20019;-66
2022/05/16 04:28:42;;;;;;;7.38;4.00;;;;;;;9.68;68.61;101342.16;7395552;19;20019;-67
2022/05/16 04:31:10;;;;;;;21.50;11.45;;;;;;;9.70;68.45;101348.28;7393145;19;20040;-68
2022/05/16 04:33:40;;;;;;;7.88;4.43;;;;;;;9.71;68.54;101340.38;7392477;19;20015;-68
2022/05/16 04:36:09;;;;;;;8.07;4.93;;;;;;;9.72;68.42;101347.38;7395629;19;20031;-67
2022/05/16 04:38:37;;;;;;;8.18;4.30;;;;;;;9.77;68.65;101342.09;7395385;19;20371;-66
2022/05/16 04:43:47;;;;;;;6.60;4.15;;;;;;;9.86;68.53;101341.16;7395520;19;20007;-68
2022/05/16 04:46:15;;;;;;;7.80;4.38;;;;;;;9.87;68.36;101337.63;7393018;19;20492;-68
2022/05/16 04:48:46;;;;;;;9.13;4.30;;;;;;;9.90;68.58;101337.63;7394462;19;20011;-66
2022/05/16 04:51:14;;;;;;;10.73;5.80;;;;;;;10.00;68.37;101352.38;7392846;19;20018;-68
2022/05/16 04:53:42;;;;;;;8.02;4.40;;;;;;;10.05;68.43;101340.06;7392263;19;20031;-66
2022/05/16 04:56:11;;;;;;;6.97;4.35;;;;;;;10.10;68.19;101340.03;7393922;19;20458;-68
2022/05/16 04:58:39;;;;;;;8.75;4.15;;;;;;;10.17;68.16;101336.44;7393466;19;20040;-67
2022/05/16 05:01:08;;;;;;;10.30;4.85;;;;;;;10.22;68.17;101332.06;7392249;19;20022;-67
2022/05/16 05:03:36;;;;;;;10.77;5.35;;;;;;;10.29;67.93;101327.59;7393578;19;20018;-65
2022/05/16 05:06:07;;;;;;;8.15;4.55;;;;;;;10.36;67.86;101333.66;7392729;19;20042;-67
2022/05/16 05:08:35;;;;;;;9.15;4.30;;;;;;;10.43;67.69;101337.97;7393709;19;20022;-66
2022/05/16 05:16:33;;;;;;;7.32;5.00;;;;;;;10.66;67.09;101342.91;7393142;19;20007;-67
2022/05/16 05:19:02;;;;;;;6.22;4.80;;;;;;;10.74;67.04;101340.19;7393187;19;20094;-67
2022/05/16 05:21:32;;;;;;;8.93;4.60;;;;;;;10.83;66.71;101328.72;7392303;19;20036;-68
2022/05/16 05:24:00;;;;;;;8.13;4.57;;;;;;;10.91;66.56;101330.34;7393273;19;20019;-67
2022/05/16 05:26:29;;;;;;;8.38;4.40;;;;;;;11.00;66.20;101328.50;7393632;19;20031;-67
2022/05/16 05:28:57;;;;;;;14.40;4.45;;;;;;;11.09;65.92;101328.34;7392174;19;20022;-68
2022/05/16 05:31:26;;;;;;;8.50;4.32;;;;;;;11.18;65.87;101317.69;7391220;19;20039;-71
2022/05/16 05:34:01;;;;;;;6.85;4.93;;;;;;;11.26;65.55;101325.50;7390859;19;20094;-68
2022/05/16 05:36:38;;;;;;;8.20;4.13;;;;;;;11.35;65.30;101322.72;7393569;19;20043;-67
2022/05/16 05:39:08;;;;;;;9.88;4.82;;;;;;;11.44;65.10;101318.19;7391473;19;20494;-69
2022/05/16 05:41:36;;;;;;;9.23;4.30;;;;;;;11.50;64.74;101321.59;7393393;19;20019;-68
2022/05/16 05:44:04;;;;;;;9.07;4.40;;;;;;;11.62;64.64;101323.16;7390357;19;20018;-67
2022/05/16 05:46:36;;;;;;;11.02;5.28;;;;;;;11.71;64.38;101322.13;7392560;19;20018;-67
2022/05/16 05:49:05;;;;;;;10.38;4.93;;;;;;;11.80;64.14;101326.34;7391989;19;20039;-67
2022/05/16 05:51:34;;;;;;;9.88;4.50;;;;;;;11.90;64.02;101327.94;7392751;19;20028;-68
2022/05/16 05:54:04;;;;;;;13.05;4.82;;;;;;;11.99;63.68;101327.81;7392704;19;20038;-66
2022/05/16 05:56:33;;;;;;;11.63;6.28;;;;;;;12.09;63.39;101330.25;7393147;19;20023;-67
2022/05/16 05:59:03;;;;;;;4.95;3.95;;;;;;;12.19;63.20;101334.44;7395259;19;20012;-67
2022/05/16 06:01:31;;;;;;;9.10;5.25;;;;;;;12.28;62.96;101330.78;7397562;19;20018;-67
2022/05/16 06:04:00;;;;;;;11.23;5.40;;;;;;;12.37;62.63;101333.22;7397589;19;20027;-67
2022/05/16 06:06:28;;;;;;;10.57;4.65;;;;;;;12.46;62.27;101334.78;7399261;19;20366;-66
2022/05/16 06:08:56;;;;;;;10.85;4.30;;;;;;;12.54;62.04;101336.38;7398910;19;20485;-68
2022/05/16 06:11:28;;;;;;;9.60;4.72;;;;;;;12.64;61.98;101331.78;7400004;19;20019;-69
2022/05/16 06:13:58;;;;;;;6.50;3.97;;;;;;;12.73;61.66;101325.47;7397743;19;20018;-68
2022/05/16 06:16:26;;;;;;;7.07;3.78;;;;;;;12.82;61.31;101333.16;7397287;19;20067;-68
2022/05/16 06:18:54;;;;;;;7.53;3.53;;;;;;;12.93;61.22;101337.31;7399795;19;20042;-68
2022/05/16 06:21:23;;;;;;;6.32;3.38;;;;;;;13.00;60.75;101328.38;7399996;19;20032;-67
2022/05/16 06:23:51;;;;;;;5.10;3.45;;;;;;;13.12;60.56;101332.53;7396634;19;20099;-67
2022/05/16 06:26:19;;;;;;;6.50;3.20;;;;;;;13.20;60.44;101326.19;7399559;19;20039;-66
2022/05/16 06:28:50;;;;;;;6.15;3.65;;;;;;;13.31;60.12;101328.56;7397005;19;20031;-67
2022/05/16 06:31:18;;;;;;;8.93;4.03;;;;;;;13.39;59.78;101325.75;7396922;19;20049;-67
2022/05/16 06:33:47;;;;;;;11.20;3.72;;;;;;;13.48;59.66;101329.94;7396875;19;20376;-66
2022/05/16 06:36:16;;;;;;;6.88;3.20;;;;;;;13.60;59.49;101323.53;7396078;19;20025;-67
2022/05/16 06:38:44;;;;;;;9.30;3.95;;;;;;;13.68;59.35;101318.91;7398345;19;20022;-67
2022/05/16 06:41:13;;;;;;;8.65;2.95;;;;;;;13.79;58.94;101324.75;7396320;19;20018;-67
2022/05/16 06:43:41;;;;;;;4.80;3.00;;;;;;;13.90;58.92;101318.34;7396557;19;20101;-64
2022/05/16 06:46:11;;;;;;;10.00;2.80;;;;;;;14.00;58.26;101311.91;7396669;19;20032;-66
2022/05/16 06:48:39;;;;;;;9.43;3.25;;;;;;;14.11;58.33;101314.25;7395947;19;20470;-66
2022/05/16 06:51:08;;;;;;;7.57;3.50;;;;;;;14.23;58.30;101318.31;7396147;19;20394;-66
2022/05/16 06:53:36;;;;;;;7.80;3.42;;;;;;;14.32;57.81;101316.31;7396155;19;20022;-67
2022/05/16 06:56:04;;;;;;;6.03;2.92;;;;;;;14.44;57.84;101317.72;7396640;19;20039;-66
2022/05/16 06:58:32;;;;;;;8.65;3.20;;;;;;;14.54;57.59;101312.19;7396114;19;20042;-67
2022/05/16 07:01:00;;;;;;;6.40;3.42;;;;;;;14.66;57.13;101311.88;7396600;19;20023;-67
2022/05/16 07:03:32;;;;;;;8.23;3.90;;;;;;;14.75;56.93;101303.66;7396023;19;20481;-67
2022/05/16 07:06:01;;;;;;;7.60;3.70;;;;;;;14.86;57.01;101305.97;7398897;19;20074;-67
2022/05/16 07:08:29;;;;;;;5.38;3.13;;;;;;;14.95;56.48;101307.44;7398769;19;20018;-72
2022/05/16 07:10:57;;;;;;;7.38;3.50;;;;;;;15.09;56.03;101310.53;7393760;19;20473;-66
2022/05/16 07:13:26;;;;;;;6.75;2.80;;;;;;;15.22;55.78;101312.81;7397953;19;20018;-67
2022/05/16 07:15:54;;;;;;;8.52;3.22;;;;;;;15.34;55.33;101309.72;7397539;19;20030;-68
2022/05/16 07:18:23;;;;;;;11.05;3.05;;;;;;;15.48;55.21;101317.25;7395884;19;20045;-67
2022/05/16 07:20:55;;;;;;;6.75;3.10;;;;;;;15.62;54.46;101316.78;7395199;19;20484;-67
2022/05/16 07:23:23;;;;;;;6.25;2.50;;;;;;;15.75;54.15;101311.94;7397049;19;20030;-67
2022/05/16 07:28:38;;;;;;;8.93;2.95;;;;;;;16.03;53.46;101311.00;7392706;19;20477;-66
2022/05/16 07:31:06;;;;;;;5.55;2.50;;;;;;;16.15;53.17;101313.22;7395823;19;20026;-68
2022/05/16 07:33:34;;;;;;;13.63;2.97;;;;;;;16.28;52.90;101317.13;7395954;19;20038;-69
2022/05/16 07:36:06;;;;;;;5.72;2.33;;;;;;;16.39;52.59;101326.44;7395438;19;20018;-67
2022/05/16 07:38:34;;;;;;;9.07;3.70;;;;;;;16.51;52.25;101322.50;7396283;19;20014;-66
2022/05/16 07:41:02;;;;;;;8.27;2.70;;;;;;;16.63;51.82;101316.75;7394965;19;20032;-69
2022/05/16 07:43:30;;;;;;;3.53;2.50;;;;;;;16.73;51.42;101318.13;7394500;19;20439;-67
2022/05/16 07:45:59;;;;;;;6.68;2.63;;;;;;;16.85;50.86;101313.25;7395011;19;20022;-67
2022/05/16 07:48:27;;;;;;;4.95;2.30;;;;;;;16.98;50.53;101313.69;7394956;19;20039;-67
2022/05/16 07:50:55;;;;;;;7.43;2.15;;;;;;;17.07;50.16;101297.41;7394537;19;20022;-68
2022/05/16 07:53:26;;;;;;;7.00;2.28;;;;;;;17.19;49.67;101298.72;7396245;19;20019;-67
2022/05/16 07:55:57;;;;;;;5.72;2.67;;;;;;;17.30;49.49;101293.81;7395522;19;20022;-67
2022/05/16 07:58:26;;;;;;;5.05;2.85;;;;;;;17.41;49.02;101296.00;7397348;19;20035;-66
2022/05/16 08:00:55;;;;;;;7.35;2.60;;;;;;;17.53;49.01;101297.31;7394511;19;20494;-67
2022/05/16 08:03:24;;;;;;;5.25;2.80;;;;;;;17.62;48.43;101288.09;7394515;19;20018;-67
2022/05/16 08:05:52;;;;;;;5.95;2.28;;;;;;;17.73;48.63;101291.13;7394771;19;20023;-67
2022/05/16 08:11:04;;;;;;;9.85;2.42;;;;;;;17.97;47.64;101299.88;7394734;19;20010;-67
2022/05/16 08:13:33;;;;;;;3.65;1.98;;;;;;;18.09;47.57;101292.28;7394904;19;20027;-67
2022/05/16 08:16:01;;;;;;;5.22;2.55;;;;;;;18.18;47.40;101298.03;7394216;19;20477;-67
2022/05/16 08:18:29;;;;;;;4.57;2.00;;;;;;;18.28;46.53;101292.31;7395779;19;20023;-67
2022/05/16 08:20:59;;;;;;;8.98;2.50;;;;;;;18.36;46.59;101288.38;7393791;19;20018;-67
2022/05/16 08:23:31;;;;;;;16.40;2.60;;;;;;;18.46;46.40;101275.50;7395390;19;20030;-67
2022/05/16 08:26:01;;;;;;;5.00;2.38;;;;;;;18.55;46.00;101283.09;7395818;19;20019;-66
2022/05/16 08:28:32;;;;;;;4.97;2.20;;;;;;;18.64;45.52;101281.78;7395058;19;20018;-67
2022/05/16 08:31:01;;;;;;;4.63;2.22;;;;;;;18.74;45.26;101284.88;7394835;19;20047;-66
2022/05/16 08:33:29;;;;;;;6.15;2.53;;;;;;;18.85;44.99;101284.34;7392718;19;20509;-67
2022/05/16 08:41:22;;;;;;;3.72;1.75;;;;;;;19.15;44.12;101282.03;7394890;19;20047;-66
2022/05/16 08:44:08;;;;;;;9.30;2.92;;;;;;;19.26;42.80;101270.00;7393606;19;20022;-66
2022/05/16 08:46:39;;;;;;;7.63;2.20;;;;;;;19.36;43.31;101266.81;7393245;19;20018;-66
2022/05/16 08:49:16;;;;;;;8.52;2.30;;;;;;;19.46;42.71;101269.88;7392557;19;20019;-67
2022/05/16 08:51:51;;;;;;;3.72;2.00;;;;;;;19.56;42.84;101275.56;7394119;19;20022;-66
2022/05/16 08:54:33;;;;;;;6.07;2.42;;;;;;;19.65;41.98;101271.56;7394169;19;20010;-66
2022/05/16 08:57:05;;;;;;;6.90;2.20;;;;;;;19.73;42.28;101268.50;7392822;19;20018;-66
2022/05/16 08:59:39;;;;;;;6.50;2.97;;;;;;;19.82;41.82;101273.38;7392913;19;20022;-66
2022/05/16 09:02:14;;;;;;;6.18;2.00;;;;;;;19.89;41.64;101280.13;7394302;19;20026;-66
2022/05/16 09:04:50;;;;;;;8.82;1.80;;;;;;;19.99;41.54;101268.06;7392582;19;20086;-68
2022/05/16 09:07:23;;;;;;;6.28;2.08;;;;;;;20.10;41.16;101272.78;7394381;19;20019;-68
2022/05/16 09:09:58;;;;;;;6.40;2.08;;;;;;;20.19;40.58;101255.44;7393024;19;20031;-66
2022/05/16 09:12:29;;;;;;;6.13;1.88;;;;;;;20.27;40.54;101250.56;7392358;19;20022;-67
2022/05/16 09:15:17;;;;;;;7.15;1.80;;;;;;;20.36;39.92;101243.88;7391602;19;20384;-66
2022/05/16 09:18:08;;;;;;;5.25;1.90;;;;;;;20.48;38.91;101242.34;7394760;19;20018;-69
2022/05/16 09:20:48;;;;;;;3.67;1.65;;;;;;;20.59;38.57;101241.75;7391837;19;20035;-67
2022/05/16 09:23:30;;;;;;;3.35;1.60;;;;;;;20.70;37.73;101238.47;7392383;19;20026;-67
2022/05/16 09:26:06;;;;;;;7.90;1.90;;;;;;;20.80;38.27;101237.91;7392495;19;20018;-67
2022/05/16 09:28:37;;;;;;;2.40;1.38;;;;;;;20.89;37.56;101228.50;7391931;19;20015;-67
2022/05/16 09:31:14;;;;;;;3.60;1.58;;;;;;;20.97;36.86;101223.56;7391892;19;20085;-67
2022/05/16 09:33:47;;;;;;;5.93;1.92;;;;;;;21.07;36.83;101231.06;7394102;19;20420;-67
2022/05/16 09:36:20;;;;;;;2.70;1.77;;;;;;;21.15;36.62;101223.44;7401415;19;20334;-66
2022/05/16 09:38:48;;;;;;;4.03;1.70;;;;;;;21.23;36.26;101226.53;7397935;19;20049;-67
2022/05/16 09:41:22;;;;;;;6.05;1.40;;;;;;;21.31;35.71;101224.25;7397334;19;20019;-67
2022/05/16 09:44:04;;;;;;;8.30;2.63;;;;;;;21.42;35.34;101215.63;7397824;19;20018;-65
2022/05/16 09:46:40;;;;;;;2.45;1.20;;;;;;;21.52;34.94;101212.41;7400901;19;20039;-68
2022/05/16 09:49:16;;;;;;;4.00;1.60;;;;;;;21.61;34.91;101211.84;7398935;19;20030;-67
2022/05/16 09:51:47;;;;;;;3.65;1.30;;;;;;;21.71;34.85;101218.38;7401061;19;20025;-67
2022/05/16 09:54:20;;;;;;;3.45;1.48;;;;;;;21.78;34.93;101222.38;7400251;19;20026;-67
2022/05/16 09:57:00;;;;;;;2.40;1.48;;;;;;;21.85;33.99;101212.19;7398646;19;20015;-67
2022/05/16 09:59:42;;;;;;;3.60;1.55;;;;;;;21.92;34.33;101212.66;7400027;19;20011;-66
2022/05/16 10:02:21;;;;;;;3.38;1.38;;;;;;;21.99;32.01;101208.66;7397949;19;20018;-66
2022/05/16 10:04:52;;;;;;;4.43;1.40;;;;;;;22.09;33.61;101203.56;7400049;19;20035;-64
2022/05/16 10:07:26;;;;;;;3.40;1.17;;;;;;;22.16;33.18;101199.56;7397393;19;20022;-67
2022/05/16 10:09:55;;;;;;;1.95;1.30;;;;;;;22.24;32.56;101199.06;7397468;19;20018;-66
2022/05/16 10:12:27;;;;;;;3.10;1.23;;;;;;;22.29;31.82;101200.50;7399748;19;20021;-66
2022/05/16 10:14:56;;;;;;;3.22;1.23;;;;;;;22.35;32.00;101199.22;7397864;19;20023;-66
2022/05/16 10:17:34;;;;;;;4.65;1.67;;;;;;;22.42;30.28;101181.03;7399229;19;20014;-66
2022/05/16 10:20:06;;;;;;;4.38;1.33;;;;;;;22.49;31.17;101190.34;7397322;19;20085;-66
2022/05/16 10:22:35;;;;;;;4.43;1.10;;;;;;;22.54;31.65;101185.56;7400206;19;20018;-66
2022/05/16 10:25:08;;;;;;;7.88;1.40;;;;;;;22.59;31.25;101180.75;7396639;19;20489;-66
2022/05/16 10:27:39;;;;;;;3.97;1.40;;;;;;;22.65;31.07;101181.34;7397358;19;20026;-66
2022/05/16 10:30:15;;;;;;;3.38;1.30;;;;;;;22.70;30.26;101184.56;7396330;19;20026;-66
2022/05/16 10:35:33;;;;;;;3.90;1.70;;;;;;;22.83;30.58;101182.78;7395658;19;20485;-67
2022/05/16 10:38:08;;;;;;;5.45;2.00;;;;;;;22.91;30.59;101180.47;7399315;19;20038;-67
2022/05/16 10:40:42;;;;;;;3.63;1.13;;;;;;;22.94;30.28;101174.91;7397210;19;20036;-65
2022/05/16 10:43:31;;;;;;;3.17;1.17;;;;;;;23.01;30.10;101174.50;7398724;19;20478;-66
2022/05/16 10:46:06;;;;;;;4.05;1.60;;;;;;;23.10;29.43;101176.53;7396436;19;20496;-66
2022/05/16 10:48:42;;;;;;;4.07;1.75;;;;;;;23.17;30.03;101177.03;7399323;19;20042;-66
2022/05/16 10:51:15;;;;;;;3.45;1.23;;;;;;;23.25;29.69;101164.84;7399138;19;20027;-65
2022/05/16 10:53:52;;;;;;;6.95;1.45;;;;;;;23.34;30.31;101166.03;7400128;19;20035;-67
2022/05/16 10:56:43;;;;;;;3.20;1.73;;;;;;;23.44;29.49;101152.81;7396352;19;20018;-66
2022/05/16 10:59:22;;;;;;;4.95;1.48;;;;;;;23.55;29.28;101152.94;7395617;19;20018;-66
2022/05/16 11:01:58;;;;;;;1.90;1.55;;;;;;;23.65;29.05;101153.16;7396216;19;20023;-67
2022/05/16 11:04:49;;;;;;;4.97;1.50;;;;;;;23.76;28.82;101144.38;7396025;19;20019;-67
2022/05/16 11:07:27;;;;;;;4.82;1.48;;;;;;;23.84;28.90;101152.69;7396001;19;20022;-67
2022/05/16 11:10:24;;;;;;;3.58;1.58;;;;;;;23.97;29.39;101149.16;7396062;19;20018;-66
2022/05/16 11:13:05;;;;;;;4.32;1.48;;;;;;;24.07;29.17;101147.53;7399142;19;20118;-68
2022/05/16 11:15:39;;;;;;;4.10;1.50;;;;;;;24.18;29.32;101136.03;7394555;19;20042;-66
2022/05/16 11:18:17;;;;;;;4.38;1.55;;;;;;;24.29;29.00;101129.88;7397250;19;20018;-66
2022/05/16 11:20:54;;;;;;;4.15;1.48;;;;;;;24.40;28.42;101133.50;7395213;19;20031;-68
2022/05/16 11:23:32;;;;;;;4.95;1.55;;;;;;;24.49;28.83;101133.75;7396642;19;20045;-66
2022/05/16 11:26:05;;;;;;;7.32;1.60;;;;;;;24.59;28.26;101140.13;7396539;19;20391;-68
2022/05/16 11:28:36;;;;;;;;;;;;;;;24.66;27.84;101130.69;7398002;19;20035;-66
2022/05/16 11:31:20;;;;;;;4.15;1.63;;;;;;;24.76;28.02;101133.56;7394811;19;19991;-67
2022/05/16 11:33:59;;;;;;;4.47;1.67;;;;;;;24.87;28.34;101122.84;7396208;19;20018;-65
2022/05/16 11:36:52;;;;;;;4.70;1.55;;;;;;;25.03;27.40;101119.88;7394462;19;20482;-67
2022/05/16 11:39:29;;;;;;;6.43;1.70;;;;;;;25.21;26.89;101114.00;7396328;19;20019;-67
2022/05/16 11:42:10;;;;;;;4.38;1.20;;;;;;;25.41;27.07;101120.53;7394624;19;20015;-67
2022/05/16 11:44:57;;;;;;;6.38;2.08;;;;;;;25.62;26.78;101109.09;7394991;19;20018;-67
2022/05/16 11:47:32;;;;;;;5.10;1.40;;;;;;;25.83;26.68;101117.22;7396850;19;20014;-67
2022/05/16 11:50:07;;;;;;;5.05;1.50;;;;;;;26.02;25.88;101100.47;7394988;19;20035;-67
2022/05/16 11:52:46;;;;;;;4.18;1.20;;;;;;;26.24;25.40;101104.13;7396762;19;20019;-67
2022/05/16 12:00:51;;;;;;;2.72;1.50;;;;;;;26.89;25.76;101099.56;7394509;19;20060;-67
2022/05/16 12:03:21;;;;;;;3.70;1.25;;;;;;;27.10;25.11;101098.72;7396484;19;20029;-67
2022/05/16 12:05:55;;;;;;;2.65;1.60;;;;;;;27.24;24.56;101087.59;7394863;19;20053;-67
2022/05/16 12:08:47;;;;;;;4.53;1.50;;;;;;;27.44;24.13;101093.97;7396579;19;20375;-68
2022/05/16 12:11:29;;;;;;;4.78;1.88;;;;;;;27.60;23.84;101089.91;7394737;19;20022;-67
2022/05/16 12:14:26;;;;;;;5.63;1.70;;;;;;;27.78;24.51;101087.41;7396886;19;20036;-67
2022/05/16 12:17:24;;;;;;;4.93;1.33;;;;;;;27.94;23.74;101090.44;7393121;19;20045;-66
2022/05/16 12:19:54;;;;;;;4.88;1.50;;;;;;;28.11;23.90;101088.94;7394179;19;20323;-67
2022/05/16 12:22:43;;;;;;;3.08;1.50;;;;;;;28.28;23.56;101090.09;7395915;19;20042;-65
2022/05/16 12:25:26;;;;;;;4.30;1.67;;;;;;;28.50;23.33;101088.09;7395313;19;20374;-66
2022/05/16 12:28:29;;;;;;;5.85;2.40;;;;;;;28.72;23.39;101084.28;7393592;19;20022;-67